| weather.gov |
![]() |
![]() | |
| Boca Raton, Boca Raton Airport |
| metric |
| D a t e | Time (est) |
Wind (mph) | Vis. (mi.) | Weather | Sky Cond. | Temperature (ºF) | Relative Humidity | Wind Chill (°F) | Heat Index (°F) | Pressure | Precipitation (in.) | ||||||
|---|---|---|---|---|---|---|---|---|---|---|---|---|---|---|---|---|---|
| Air | Dwpt | 6 hour | altimeter (in) | sea level (mb) | 1 hr | 3 hr | 6 hr | ||||||||||
| Max. | Min. | ||||||||||||||||
| 16 | 09:53 | NW 5 | 10.00 | Fair | CLR | 63 | 41 | 45% | NA | NA | 30.19 | NA | |||||
| 16 | 08:53 | NW 5 | 10.00 | Fair | CLR | 57 | 39 | 51% | NA | NA | 30.18 | NA | |||||
| 16 | 07:53 | NW 5 | 10.00 | Fair | CLR | 45 | 41 | 87% | 42 | NA | 30.16 | NA | |||||
| 16 | 06:53 | N 5 | 10.00 | Fair | CLR | 41 | 37 | 87% | 38 | NA | 30.14 | NA | |||||
| 15 | 22:53 | NW 6 | 10.00 | Fair | CLR | 43 | 36 | 76% | 39 | NA | 30.17 | NA | |||||
| 15 | 19:53 | NW 6 | 10.00 | Fair | CLR | 52 | 36 | 54% | NA | NA | 30.15 | NA | |||||
| 15 | 18:53 | NW 6 | 10.00 | Fair | CLR | 54 | 34 | 47% | NA | NA | 30.13 | NA | |||||
| 15 | 16:53 | NW 8 | 10.00 | Fair | CLR | 61 | 34 | 36% | NA | NA | 30.12 | NA | |||||
| 15 | 15:53 | NW 9 G 17 | 10.00 | Fair | CLR | 61 | 34 | 36% | NA | NA | 30.12 | NA | |||||
| 15 | 14:53 | NW 9 G 15 | 10.00 | Fair | CLR | 63 | 36 | 37% | NA | NA | 30.13 | NA | |||||
| 15 | 13:53 | NW 9 G 17 | 10.00 | Fair | CLR | 61 | 36 | 39% | NA | NA | 30.15 | NA | |||||
| 15 | 12:53 | NW 9 G 17 | 10.00 | Fair | CLR | 61 | 39 | 45% | NA | NA | 30.19 | NA | |||||
| 15 | 11:53 | NW 12 G 17 | 10.00 | Fair | CLR | 59 | 39 | 48% | NA | NA | 30.21 | NA | |||||
| 15 | 10:53 | NW 12 G 17 | 10.00 | Fair | CLR | 57 | 36 | 44% | NA | NA | 30.23 | NA | |||||
| 15 | 09:53 | W 16 | 10.00 | Fair | CLR | 52 | 34 | 50% | NA | NA | 30.22 | NA | |||||
| 15 | 08:53 | NW 14 | 10.00 | Fair | CLR | 48 | 32 | 54% | 42 | NA | 30.21 | NA | |||||
| 15 | 07:53 | NW 14 | 10.00 | Fair | CLR | 43 | 32 | 66% | 36 | NA | 30.19 | NA | |||||
| 15 | 06:53 | NW 14 | 10.00 | Fair | CLR | 43 | 32 | 66% | 36 | NA | 30.17 | NA | |||||
| 14 | 22:53 | NW 14 G 23 | 10.00 | Fair | CLR | 48 | 41 | 76% | 42 | NA | 30.13 | NA | |||||
| 14 | 21:53 | W 12 G 23 | 10.00 | Fair | CLR | 50 | 39 | 67% | 45 | NA | 30.13 | NA | |||||
| 14 | 20:53 | NW 12 G 20 | 10.00 | Fair | CLR | 52 | 36 | 54% | NA | NA | 30.12 | NA | |||||
| 14 | 19:53 | NW 12 G 17 | 10.00 | Fair | CLR | 54 | 36 | 51% | NA | NA | 30.10 | NA | |||||
| 14 | 18:53 | W 9 G 17 | 10.00 | Fair | CLR | 55 | 36 | 47% | NA | NA | 30.08 | NA | |||||
| 14 | 17:53 | NW 9 G 21 | 10.00 | Fair | CLR | 57 | 34 | 41% | NA | NA | 30.06 | NA | |||||
| 14 | 16:53 | W 12 G 24 | 10.00 | Fair | CLR | 57 | 34 | 41% | NA | NA | 30.05 | NA | |||||
| 14 | 15:53 | W 17 G 28 | 10.00 | Fair | CLR | 57 | 34 | 41% | NA | NA | 30.04 | NA | |||||
| 14 | 14:53 | W 21 G 31 | 10.00 | Fair and Breezy | CLR | 59 | 34 | 39% | NA | NA | 30.03 | NA | |||||
| 14 | 13:53 | W 18 G 28 | 10.00 | Fair | CLR | 54 | 36 | 51% | NA | NA | 30.05 | NA | |||||
| 14 | 12:53 | NW 23 G 31 | 10.00 | Fair and Breezy | CLR | 55 | 34 | 44% | NA | NA | 30.08 | NA | |||||
| 14 | 11:53 | NW 18 G 31 | 10.00 | Fair | CLR | 54 | 34 | 47% | NA | NA | 30.12 | NA | |||||
| 14 | 10:53 | NW 17 G 31 | 10.00 | Fair | CLR | 52 | 34 | 50% | NA | NA | 30.14 | NA | |||||
| 14 | 09:53 | NW 17 G 26 | 10.00 | Fair | CLR | 48 | 34 | 58% | 42 | NA | 30.15 | NA | |||||
| 14 | 08:53 | NW 17 G 26 | 10.00 | Fair | CLR | 48 | 34 | 58% | 42 | NA | 30.13 | NA | |||||
| 14 | 07:53 | NW 17 G 26 | 10.00 | Fair | CLR | 46 | 32 | 57% | 39 | NA | 30.10 | NA | |||||
| 14 | 06:53 | NW 17 G 26 | 10.00 | Fair | CLR | 46 | 34 | 62% | 39 | NA | 30.07 | NA | |||||
| 13 | 22:53 | NW 17 G 26 | 10.00 | A Few Clouds | FEW033 | 57 | 46 | 67% | NA | NA | 29.97 | NA | |||||
| 13 | 21:53 | W 14 G 25 | 10.00 | A Few Clouds | FEW033 | 59 | 46 | 63% | NA | NA | 29.97 | NA | |||||
| 13 | 20:53 | W 15 G 26 | 10.00 | A Few Clouds | FEW037 | 59 | 48 | 68% | NA | NA | 29.96 | NA | |||||
| 13 | 19:53 | NW 12 G 26 | 10.00 | A Few Clouds | FEW034 | 61 | 50 | 68% | NA | NA | 29.93 | NA | |||||
| 13 | 18:53 | NW 16 G 23 | 10.00 | Fair | CLR | 64 | 52 | 64% | NA | NA | 29.90 | NA | |||||
| 13 | 17:53 | W 17 G 29 | 10.00 | Fair | CLR | 68 | 52 | 56% | NA | NA | 29.88 | NA | |||||
| 13 | 16:53 | W 13 G 24 | 10.00 | A Few Clouds | FEW025 | 70 | 55 | 60% | NA | NA | 29.85 | NA | |||||
| 13 | 15:53 | W 16 G 30 | 10.00 | Partly Cloudy | SCT020 | 72 | 64 | 78% | NA | NA | 29.84 | NA | |||||
| 13 | 14:53 | W 16 G 25 | 3.00 | A Few Clouds | FEW090 | 68 | 66 | 94% | NA | NA | 29.84 | NA | |||||
| 13 | 13:53 | SW 21 G 32 | 3.00 | Rain Fog/Mist and Breezy | SCT030 SCT042 BKN050 | 68 | 64 | 88% | NA | NA | 29.87 | NA | |||||
| 13 | 11:53 | SW 21 G 32 | 10.00 | Fair and Breezy | CLR | 79 | 59 | 51% | NA | 80 | 29.92 | NA | |||||
| 13 | 10:53 | SW 21 G 32 | 10.00 | Fair and Breezy | CLR | 77 | 63 | 61% | NA | 79 | 29.94 | NA | |||||
| D a t e | Time (est) |
Wind (mph) | Vis. (mi.) | Weather | Sky Cond. | Air | Dwpt | Max. | Min. | Relative Humidity | Wind Chill (°F) | Heat Index (°F) | altimeter (in.) | sea level (mb) |
1 hr | 3 hr | 6 hr |
| 6 hour | |||||||||||||||||
| Temperature (ºF) | Pressure | Precipitation (in.) | |||||||||||||||
| National Weather Service Southern Region Headquarters Fort Worth, Texas Disclaimer |
Last Modified: Febuary, 7 2012 Privacy Policy |
|